createdAt,value
2022-10-19T00:01:11.231Z,102282.09
2022-10-19T00:03:38.875Z,102281.13
2022-10-19T00:06:27.015Z,102275.72
2022-10-19T00:08:59.280Z,102276.22
2022-10-19T00:11:28.414Z,102280.72
2022-10-19T00:13:56.554Z,102269.00
2022-10-19T00:16:24.529Z,102275.09
2022-10-19T00:18:51.205Z,102268.50
2022-10-19T00:21:19.577Z,102273.50
2022-10-19T00:23:46.699Z,102267.19
2022-10-19T00:26:13.916Z,102279.06
2022-10-19T00:28:41.613Z,102271.22
2022-10-19T00:31:15.014Z,102263.22
2022-10-19T00:33:44.403Z,102266.50
2022-10-19T00:36:36.107Z,102261.69
2022-10-19T00:39:05.206Z,102267.25
2022-10-19T00:41:33.849Z,102268.44
2022-10-19T00:44:28.000Z,102273.22
2022-10-19T00:47:01.971Z,102274.28
2022-10-19T00:49:33.627Z,102283.03
2022-10-19T00:52:10.660Z,102275.13
2022-10-19T00:54:41.082Z,102277.22
2022-10-19T00:57:08.748Z,102277.13
2022-10-19T00:59:37.136Z,102278.84
2022-10-19T01:02:05.699Z,102271.97
2022-10-19T01:04:36.359Z,102276.03
2022-10-19T01:07:05.336Z,102268.84
2022-10-19T01:09:31.961Z,102264.19
2022-10-19T01:11:58.619Z,102264.72
2022-10-19T01:14:28.210Z,102262.22
2022-10-19T01:17:11.135Z,102262.84
2022-10-19T01:19:56.021Z,102261.44
2022-10-19T01:22:40.604Z,102261.69
2022-10-19T01:25:42.456Z,102262.81
2022-10-19T01:28:40.234Z,102256.28
2022-10-19T01:31:28.605Z,102243.91
2022-10-19T01:34:08.821Z,102249.41
2022-10-19T01:36:53.496Z,102240.81
2022-10-19T01:39:52.854Z,102243.56
2022-10-19T01:42:39.507Z,102246.94
2022-10-19T01:45:09.542Z,102240.63
2022-10-19T01:47:42.638Z,102235.56
2022-10-19T01:50:28.483Z,102230.59
2022-10-19T01:52:56.296Z,102231.56
2022-10-19T01:55:26.337Z,102232.22
2022-10-19T01:57:59.761Z,102230.16
2022-10-19T02:00:28.394Z,102235.91
2022-10-19T02:02:55.798Z,102232.47
2022-10-19T02:05:30.249Z,102240.56
2022-10-19T02:08:01.211Z,102236.34
2022-10-19T02:10:29.624Z,102239.91
2022-10-19T02:12:57.750Z,102237.53
2022-10-19T02:15:27.923Z,102231.94
2022-10-19T02:17:57.365Z,102232.31
2022-10-19T02:20:24.566Z,102235.38
2022-10-19T02:22:51.232Z,102224.91
2022-10-19T02:25:18.385Z,102227.00
2022-10-19T02:27:45.198Z,102222.44
2022-10-19T02:30:15.762Z,102213.06
2022-10-19T02:32:44.105Z,102205.34
2022-10-19T02:35:12.737Z,102205.25
2022-10-19T02:37:40.542Z,102207.16
2022-10-19T02:40:08.090Z,102204.94
2022-10-19T02:42:44.424Z,102206.19
2022-10-19T02:45:21.843Z,102203.66
2022-10-19T02:47:55.822Z,102199.16
2022-10-19T02:50:23.186Z,102190.47
2022-10-19T02:52:49.968Z,102183.41
2022-10-19T02:55:16.711Z,102188.06
2022-10-19T02:57:43.424Z,102181.69
2022-10-19T03:00:11.337Z,102185.13
2022-10-19T03:02:38.038Z,102182.72
2022-10-19T03:05:05.004Z,102174.06
2022-10-19T03:07:32.084Z,102171.78
2022-10-19T03:09:59.078Z,102169.97
2022-10-19T03:12:25.821Z,102174.44
2022-10-19T03:14:52.561Z,102167.31
2022-10-19T03:17:19.393Z,102172.75
2022-10-19T03:19:46.219Z,102167.50
2022-10-19T03:22:13.913Z,102165.59
2022-10-19T03:24:40.757Z,102164.06
2022-10-19T03:27:07.437Z,102165.88
2022-10-19T03:29:34.170Z,102166.72
2022-10-19T03:32:00.919Z,102166.44
2022-10-19T03:34:27.601Z,102165.97
2022-10-19T03:36:54.342Z,102159.66
2022-10-19T03:39:21.084Z,102166.63
2022-10-19T03:41:47.972Z,102168.19
2022-10-19T03:44:14.726Z,102163.78
2022-10-19T03:46:41.606Z,102158.16
2022-10-19T03:49:09.357Z,102155.16
2022-10-19T03:51:36.546Z,102153.38
2022-10-19T03:54:07.105Z,102160.34
2022-10-19T03:56:35.563Z,102160.03
2022-10-19T03:59:03.477Z,102167.09
2022-10-19T04:01:36.148Z,102160.56
2022-10-19T04:04:05.933Z,102156.69
2022-10-19T04:06:35.991Z,102155.66
2022-10-19T04:09:04.300Z,102152.09
2022-10-19T04:11:33.380Z,102160.56
2022-10-19T04:14:00.569Z,102156.22
2022-10-19T04:16:29.656Z,102158.34
2022-10-19T04:18:56.694Z,102160.13
2022-10-19T04:21:23.383Z,102158.59
2022-10-19T04:23:57.339Z,102169.19
2022-10-19T04:26:24.171Z,102169.00
2022-10-19T04:28:50.959Z,102159.94
2022-10-19T04:31:17.738Z,102157.28
2022-10-19T04:36:12.249Z,102157.81
2022-10-19T04:38:39.014Z,102154.50
2022-10-19T04:41:12.400Z,102147.97
2022-10-19T04:43:39.506Z,102138.28
2022-10-19T04:46:09.201Z,102144.09
2022-10-19T04:48:37.323Z,102146.31
2022-10-19T04:51:05.090Z,102143.19
2022-10-19T04:53:33.151Z,102146.16
2022-10-19T04:56:00.275Z,102150.13
2022-10-19T04:58:27.565Z,102153.00
2022-10-19T05:00:54.335Z,102148.94
2022-10-19T05:03:21.060Z,102150.63
2022-10-19T05:05:47.760Z,102141.84
2022-10-19T05:08:14.450Z,102148.03
2022-10-19T05:10:44.256Z,102148.59
2022-10-19T05:13:13.723Z,102139.75
2022-10-19T05:15:40.468Z,102136.44
2022-10-19T05:18:07.225Z,102138.59
2022-10-19T05:20:33.987Z,102135.47
2022-10-19T05:23:04.746Z,102128.22
2022-10-19T05:25:33.985Z,102128.13
2022-10-19T05:28:00.751Z,102121.13
2022-10-19T05:30:27.474Z,102119.69
2022-10-19T05:32:54.252Z,102123.34
2022-10-19T05:35:22.677Z,102122.88
2022-10-19T05:37:54.462Z,102118.50
2022-10-19T05:40:21.317Z,102114.09
2022-10-19T05:42:47.965Z,102120.22
2022-10-19T05:45:14.773Z,102123.97
2022-10-19T05:47:41.445Z,102113.50
2022-10-19T05:50:08.803Z,102120.13
2022-10-19T05:52:35.481Z,102109.25
2022-10-19T05:55:02.163Z,102100.59
2022-10-19T05:57:28.796Z,102099.13
2022-10-19T05:59:58.409Z,102092.59
2022-10-19T06:02:25.090Z,102097.28
2022-10-19T06:04:51.797Z,102099.53
2022-10-19T06:07:18.576Z,102091.50
2022-10-19T06:09:46.106Z,102099.34
2022-10-19T06:12:14.108Z,102087.88
2022-10-19T06:14:43.082Z,102092.78
2022-10-19T06:17:09.953Z,102097.59
2022-10-19T06:19:36.845Z,102099.50
2022-10-19T06:22:03.598Z,102092.03
2022-10-19T06:24:30.502Z,102093.53
2022-10-19T06:26:57.265Z,102091.09
2022-10-19T06:29:23.935Z,102096.19
2022-10-19T06:31:52.107Z,102089.38
2022-10-19T06:34:19.032Z,102088.66
2022-10-19T06:36:45.840Z,102098.34
2022-10-19T06:39:12.502Z,102097.38
2022-10-19T06:41:39.312Z,102105.94
2022-10-19T06:44:18.294Z,102104.50
2022-10-19T06:46:45.021Z,102102.91
2022-10-19T06:49:13.108Z,102099.56
2022-10-19T06:51:40.714Z,102107.09
2022-10-19T06:54:07.906Z,102101.13
2022-10-19T06:56:34.755Z,102103.06
2022-10-19T06:59:01.469Z,102103.16
2022-10-19T07:01:28.264Z,102102.94
2022-10-19T07:03:55.421Z,102109.66
2022-10-19T07:06:22.918Z,102115.31
2022-10-19T07:08:49.714Z,102110.84
2022-10-19T07:11:19.216Z,102113.69
2022-10-19T07:13:46.017Z,102109.31
2022-10-19T07:16:18.009Z,102113.69
2022-10-19T07:18:49.402Z,102107.59
2022-10-19T07:21:17.155Z,102099.56
2022-10-19T07:23:45.635Z,102104.06
2022-10-19T07:26:23.454Z,102098.41
2022-10-19T07:28:50.868Z,102095.22
2022-10-19T07:31:22.118Z,102088.88
2022-10-19T07:33:53.845Z,102093.63
2022-10-19T07:36:21.068Z,102088.47
2022-10-19T07:38:47.862Z,102096.41
2022-10-19T07:41:16.868Z,102101.84
2022-10-19T07:43:45.209Z,102096.72
2022-10-19T07:46:15.490Z,102104.09
2022-10-19T07:48:42.827Z,102101.09
2022-10-19T07:51:12.011Z,102102.00
2022-10-19T07:53:39.169Z,102103.25
2022-10-19T07:56:27.109Z,102099.63
2022-10-19T07:58:56.042Z,102110.53
2022-10-19T08:01:25.771Z,102106.03
2022-10-19T08:04:43.350Z,102112.38
2022-10-19T08:06:41.450Z,102109.78
2022-10-19T08:09:08.241Z,102112.69
2022-10-19T08:11:35.758Z,102112.03
2022-10-19T08:14:03.334Z,102108.06
2022-10-19T08:16:41.710Z,102096.84
2022-10-19T08:19:10.565Z,102094.16
2022-10-19T08:21:39.190Z,102089.56
2022-10-19T08:24:07.329Z,102081.56
2022-10-19T08:26:35.679Z,102092.78
2022-10-19T08:29:07.696Z,102092.34
2022-10-19T08:31:34.971Z,102090.66
2022-10-19T08:34:02.196Z,102085.31
2022-10-19T08:36:31.322Z,102085.66
2022-10-19T08:38:58.885Z,102085.09
2022-10-19T08:41:40.675Z,102088.66
2022-10-19T08:44:29.100Z,102085.09
2022-10-19T08:47:14.201Z,102082.63
2022-10-19T08:49:41.960Z,102081.47
2022-10-19T08:52:16.379Z,102079.13
2022-10-19T08:54:54.602Z,102082.84
2022-10-19T08:57:45.996Z,102076.56
2022-10-19T09:03:54.338Z,102076.56
2022-10-19T09:06:31.949Z,102076.88
2022-10-19T09:08:59.613Z,102065.00
2022-10-19T09:11:35.432Z,102071.84
2022-10-19T09:14:14.988Z,102070.97
2022-10-19T09:16:42.553Z,102067.34
2022-10-19T09:19:32.039Z,102064.34
2022-10-19T09:22:06.417Z,102057.28
2022-10-19T09:24:52.938Z,102052.25
2022-10-19T09:27:24.853Z,102050.44
2022-10-19T09:29:56.812Z,102051.03
2022-10-19T09:32:38.667Z,102050.44
2022-10-19T09:35:47.040Z,102056.84
2022-10-19T09:38:19.923Z,102036.19
2022-10-19T09:40:46.949Z,102045.50
2022-10-19T09:43:20.853Z,102042.94
2022-10-19T09:46:20.037Z,102036.31
2022-10-19T09:48:52.329Z,102043.69
2022-10-19T09:51:21.113Z,102039.84
2022-10-19T09:53:52.094Z,102041.31
2022-10-19T09:56:21.799Z,102042.09
2022-10-19T09:58:51.288Z,102046.38
2022-10-19T10:01:41.979Z,102033.00
2022-10-19T10:04:18.544Z,102029.22
2022-10-19T10:06:48.334Z,102026.94
2022-10-19T10:09:17.474Z,102029.88
2022-10-19T10:11:48.208Z,102024.63
2022-10-19T10:14:25.664Z,102031.13
2022-10-19T10:16:57.599Z,102024.28
2022-10-19T10:19:28.953Z,102028.78
2022-10-19T10:21:55.998Z,102013.94
2022-10-19T10:24:25.616Z,102019.16
2022-10-19T10:26:55.894Z,102000.59
2022-10-19T10:29:24.771Z,102008.72
2022-10-19T10:32:00.622Z,102005.09
2022-10-19T10:34:49.416Z,102001.84
2022-10-19T10:37:39.069Z,102008.16
2022-10-19T10:40:18.807Z,102004.00
2022-10-19T10:42:50.541Z,102019.16
2022-10-19T10:45:29.303Z,102015.00
2022-10-19T10:47:58.146Z,102016.31
2022-10-19T10:50:32.656Z,102033.16
2022-10-19T10:53:05.112Z,102024.00
2022-10-19T10:55:33.282Z,102019.00
2022-10-19T10:58:18.567Z,102016.03
2022-10-19T11:00:47.006Z,102008.75
2022-10-19T11:03:23.861Z,102011.50
2022-10-19T11:05:57.563Z,102015.97
2022-10-19T11:08:49.421Z,102008.06
2022-10-19T11:11:39.877Z,102008.41
2022-10-19T11:14:27.658Z,102005.41
2022-10-19T11:16:58.046Z,101999.91
2022-10-19T11:19:41.182Z,102003.09
2022-10-19T11:22:28.828Z,101999.78
2022-10-19T11:25:34.047Z,102001.06
2022-10-19T11:28:18.908Z,102000.81
2022-10-19T11:30:51.554Z,101993.13
2022-10-19T11:33:48.636Z,101983.72
2022-10-19T11:36:50.861Z,101981.69
2022-10-19T11:39:38.986Z,101975.38
2022-10-19T11:42:30.685Z,101970.56
2022-10-19T11:45:28.513Z,101981.19
2022-10-19T11:48:03.723Z,101974.09
2022-10-19T11:51:21.446Z,101957.13
2022-10-19T11:54:09.967Z,101963.78
2022-10-19T11:57:02.835Z,101957.25
2022-10-19T11:59:36.828Z,101964.63
2022-10-19T12:02:12.358Z,101960.91
2022-10-19T12:04:41.760Z,101950.28
2022-10-19T12:07:45.411Z,101954.88
2022-10-19T12:10:23.953Z,101950.69
2022-10-19T12:12:58.973Z,101948.47
2022-10-19T12:15:37.820Z,101945.91
2022-10-19T12:18:09.894Z,101940.63
2022-10-19T12:20:46.984Z,101930.72
2022-10-19T12:23:39.029Z,101937.59
2022-10-19T12:26:14.893Z,101934.06
2022-10-19T12:28:46.961Z,101928.72
2022-10-19T12:31:14.988Z,101926.28
2022-10-19T12:34:09.421Z,101922.31
2022-10-19T12:36:52.286Z,101919.50
2022-10-19T12:39:46.674Z,101917.44
2022-10-19T12:42:16.006Z,101913.59
2022-10-19T12:44:58.744Z,101906.59
2022-10-19T12:47:25.810Z,101899.91
2022-10-19T12:49:55.648Z,101899.56
2022-10-19T12:52:44.565Z,101896.78
2022-10-19T12:55:12.946Z,101905.13
2022-10-19T12:57:40.868Z,101889.22
2022-10-19T13:00:32.670Z,101889.22
2022-10-19T13:03:04.851Z,101893.69
2022-10-19T13:05:33.130Z,101886.25
2022-10-19T13:08:08.111Z,101872.63
2022-10-19T13:10:37.760Z,101870.94
2022-10-19T13:13:04.705Z,101870.94
2022-10-19T13:15:34.396Z,101868.59
2022-10-19T13:18:42.546Z,101855.97
2022-10-19T13:21:09.294Z,101848.66
2022-10-19T13:23:40.475Z,101840.38
2022-10-19T13:26:32.930Z,101835.34
2022-10-19T13:28:59.728Z,101835.88
2022-10-19T13:31:31.441Z,101842.38
2022-10-19T13:33:58.762Z,101831.75
2022-10-19T13:36:26.565Z,101828.94
2022-10-19T13:38:59.340Z,101818.00
2022-10-19T13:41:38.425Z,101818.94
2022-10-19T13:44:12.194Z,101812.50
2022-10-19T13:46:44.531Z,101817.84
2022-10-19T13:49:26.738Z,101809.81
2022-10-19T13:52:37.515Z,101806.88
2022-10-19T13:55:10.364Z,101795.59
2022-10-19T13:58:14.288Z,101790.00
2022-10-19T14:01:08.241Z,101793.06
2022-10-19T14:03:42.941Z,101788.91
2022-10-19T14:06:42.507Z,101785.13
2022-10-19T14:09:24.013Z,101779.78
2022-10-19T14:11:52.673Z,101771.16
2022-10-19T14:14:24.581Z,101781.88
2022-10-19T14:16:54.441Z,101773.09
2022-10-19T14:19:28.299Z,101774.69
2022-10-19T14:22:00.962Z,101776.13
2022-10-19T14:24:31.964Z,101776.34
2022-10-19T14:27:07.020Z,101776.59
2022-10-19T14:29:50.380Z,101774.88
2022-10-19T14:32:20.976Z,101762.22
2022-10-19T14:34:49.189Z,101756.66
2022-10-19T14:37:26.804Z,101752.56
2022-10-19T14:40:17.909Z,101746.25
2022-10-19T14:42:46.242Z,101745.63
2022-10-19T14:45:25.006Z,101738.72
2022-10-19T14:48:07.025Z,101740.28
2022-10-19T14:50:51.567Z,101735.19
2022-10-19T14:53:30.601Z,101736.50
2022-10-19T14:56:02.445Z,101725.50
2022-10-19T14:58:35.891Z,101732.72
2022-10-19T15:01:02.899Z,101713.63
2022-10-19T15:03:30.379Z,101721.44
2022-10-19T15:06:03.715Z,101710.94
2022-10-19T15:08:37.782Z,101720.16
2022-10-19T15:11:06.806Z,101714.06
2022-10-19T15:13:40.335Z,101706.00
2022-10-19T15:16:26.879Z,101709.88
2022-10-19T15:18:53.756Z,101701.13
2022-10-19T15:21:21.616Z,101695.97
2022-10-19T15:23:50.863Z,101693.56
2022-10-19T15:26:21.797Z,101693.31
2022-10-19T15:28:49.470Z,101690.78
2022-10-19T15:31:26.319Z,101685.56
2022-10-19T15:33:56.812Z,101678.25
2022-10-19T15:36:25.111Z,101674.59
2022-10-19T15:39:06.120Z,101671.91
2022-10-19T15:41:44.490Z,101665.97
2022-10-19T15:44:40.675Z,101651.53
2022-10-19T15:47:16.531Z,101645.47
2022-10-19T15:49:43.203Z,101653.22
2022-10-19T15:52:22.011Z,101653.22
2022-10-19T15:54:53.596Z,101649.69
2022-10-19T15:57:37.975Z,101648.50
2022-10-19T16:00:17.380Z,101638.91
2022-10-19T16:02:44.435Z,101636.69
2022-10-19T16:05:11.635Z,101632.81
2022-10-19T16:07:40.361Z,101630.16
2022-10-19T16:10:08.304Z,101626.72
2022-10-19T16:12:35.114Z,101633.03
2022-10-19T16:15:01.825Z,101628.19
2022-10-19T16:17:28.516Z,101625.50
2022-10-19T16:19:55.258Z,101614.41
2022-10-19T16:22:21.989Z,101611.13
2022-10-19T16:24:48.723Z,101612.94
2022-10-19T16:27:16.478Z,101606.34
2022-10-19T16:29:44.408Z,101611.47
2022-10-19T16:32:11.186Z,101600.66
2022-10-19T16:34:38.191Z,101596.03
2022-10-19T16:37:07.052Z,101591.91
2022-10-19T16:39:34.632Z,101601.00
2022-10-19T16:42:01.385Z,101587.19
2022-10-19T16:44:28.024Z,101590.22
2022-10-19T16:46:57.333Z,101587.53
2022-10-19T16:49:24.122Z,101588.47
2022-10-19T16:51:53.230Z,101594.00
2022-10-19T16:54:23.389Z,101580.75
2022-10-19T16:56:50.156Z,101581.72
2022-10-19T16:59:18.757Z,101571.78
2022-10-19T17:01:46.733Z,101570.44
2022-10-19T17:04:15.341Z,101581.75
2022-10-19T17:06:42.361Z,101564.13
2022-10-19T17:11:56.058Z,101562.41
2022-10-19T17:14:22.780Z,101565.56
2022-10-19T17:16:49.635Z,101556.47
2022-10-19T17:19:16.613Z,101554.16
2022-10-19T17:21:43.909Z,101554.09
2022-10-19T17:24:21.705Z,101559.38
2022-10-19T17:26:50.784Z,101545.19
2022-10-19T17:29:18.159Z,101536.78
2022-10-19T17:31:44.888Z,101541.19
2022-10-19T17:34:11.917Z,101536.16
2022-10-19T17:36:46.876Z,101530.13
2022-10-19T17:39:19.690Z,101527.22
2022-10-19T17:41:48.678Z,101529.97
2022-10-19T17:44:16.898Z,101532.44
2022-10-19T17:46:43.906Z,101542.88
2022-10-19T17:49:11.517Z,101540.94
2022-10-19T17:51:39.522Z,101529.59
2022-10-19T17:54:11.687Z,101531.81
2022-10-19T17:56:39.109Z,101525.84
2022-10-19T17:59:08.845Z,101531.19
2022-10-19T18:01:36.918Z,101522.94
2022-10-19T18:04:03.989Z,101529.75
2022-10-19T18:06:32.909Z,101536.91
2022-10-19T18:09:01.385Z,101536.78
2022-10-19T18:11:36.005Z,101529.25
2022-10-19T18:14:03.773Z,101524.38
2022-10-19T18:16:33.564Z,101521.47
2022-10-19T18:19:02.202Z,101507.28
2022-10-19T18:21:35.380Z,101503.72
2022-10-19T18:24:02.828Z,101500.09
2022-10-19T18:26:32.049Z,101494.28
2022-10-19T18:28:59.793Z,101506.56
2022-10-19T18:31:29.470Z,101504.09
2022-10-19T18:34:04.498Z,101492.94
2022-10-19T18:36:32.148Z,101490.38
2022-10-19T18:39:01.013Z,101499.84
2022-10-19T18:41:29.676Z,101494.94
2022-10-19T18:44:03.211Z,101494.25
2022-10-19T18:46:30.073Z,101481.63
2022-10-19T18:48:56.683Z,101492.31
2022-10-19T18:51:24.190Z,101478.56
2022-10-19T18:53:51.239Z,101496.03
2022-10-19T18:56:20.660Z,101489.63
2022-10-19T18:58:47.583Z,101481.50
2022-10-19T19:01:14.341Z,101486.84
2022-10-19T19:03:46.638Z,101480.72
2022-10-19T19:06:19.415Z,101480.59
2022-10-19T19:08:46.622Z,101477.09
2022-10-19T19:11:14.512Z,101473.91
2022-10-19T19:13:42.614Z,101463.38
2022-10-19T19:16:09.747Z,101451.69
2022-10-19T19:18:37.876Z,101453.41
2022-10-19T19:21:12.958Z,101449.06
2022-10-19T19:23:39.722Z,101452.84
2022-10-19T19:26:13.396Z,101451.38
2022-10-19T19:28:46.282Z,101461.13
2022-10-19T19:31:18.359Z,101449.81
2022-10-19T19:33:48.730Z,101436.91
2022-10-19T19:36:17.170Z,101438.97
2022-10-19T19:38:44.918Z,101436.19
2022-10-19T19:41:15.478Z,101425.59
2022-10-19T19:43:45.839Z,101430.72
2022-10-19T19:46:17.156Z,101426.44
2022-10-19T19:48:47.441Z,101430.59
2022-10-19T19:51:17.305Z,101431.47
2022-10-19T19:53:47.030Z,101406.91
2022-10-19T19:56:18.681Z,101420.16
2022-10-19T19:58:49.762Z,101408.00
2022-10-19T20:01:25.062Z,101402.19
2022-10-19T20:03:54.810Z,101402.56
2022-10-19T20:06:25.964Z,101399.03
2022-10-19T20:08:53.577Z,101402.09
2022-10-19T20:11:20.552Z,101393.44
2022-10-19T20:13:47.402Z,101393.59
2022-10-19T20:16:26.590Z,101388.25
2022-10-19T20:19:07.203Z,101387.63
2022-10-19T20:21:34.124Z,101364.69
2022-10-19T20:24:03.160Z,101363.47
2022-10-19T20:26:30.245Z,101356.19
2022-10-19T20:28:56.995Z,101356.19
2022-10-19T20:31:24.201Z,101348.91
2022-10-19T20:33:51.109Z,101347.91
2022-10-19T20:36:25.452Z,101346.81
2022-10-19T20:38:54.834Z,101336.03
2022-10-19T20:41:24.459Z,101344.16
2022-10-19T20:43:52.400Z,101334.69
2022-10-19T20:46:30.048Z,101332.75
2022-10-19T20:48:59.738Z,101329.81
2022-10-19T20:51:32.617Z,101333.09
2022-10-19T20:54:01.765Z,101337.47
2022-10-19T20:56:33.411Z,101321.31
2022-10-19T20:59:06.271Z,101319.75
2022-10-19T21:01:34.759Z,101323.00
2022-10-19T21:04:04.615Z,101326.66
2022-10-19T21:06:34.052Z,101326.91
2022-10-19T21:09:01.208Z,101324.09
2022-10-19T21:11:32.224Z,101324.22
2022-10-19T21:14:01.772Z,101313.19
2022-10-19T21:16:37.666Z,101304.53
2022-10-19T21:19:07.195Z,101296.25
2022-10-19T21:21:36.575Z,101286.69
2022-10-19T21:24:12.066Z,101281.47
2022-10-19T21:26:39.610Z,101280.13
2022-10-19T21:29:09.594Z,101276.00
2022-10-19T21:31:38.281Z,101275.03
2022-10-19T21:34:06.301Z,101271.97
2022-10-19T21:36:33.084Z,101267.47
2022-10-19T21:39:00.007Z,101270.25
2022-10-19T21:41:26.900Z,101265.06
2022-10-19T21:43:54.795Z,101259.94
2022-10-19T21:46:23.189Z,101262.97
2022-10-19T21:51:42.145Z,101261.63
2022-10-19T21:54:12.251Z,101251.31
2022-10-19T21:56:38.994Z,101249.88
2022-10-19T21:59:05.757Z,101260.78
2022-10-19T22:01:38.742Z,101253.50
2022-10-19T22:04:13.366Z,101262.50
2022-10-19T22:06:40.948Z,101252.78
2022-10-19T22:09:09.579Z,101245.28
2022-10-19T22:11:36.619Z,101246.38
2022-10-19T22:14:04.942Z,101234.34
2022-10-19T22:16:33.249Z,101231.06
2022-10-19T22:18:59.923Z,101230.19
2022-10-19T22:21:29.976Z,101229.22
2022-10-19T22:24:02.189Z,101228.00
2022-10-19T22:26:31.909Z,101231.13
2022-10-19T22:29:00.463Z,101211.69
2022-10-19T22:31:29.574Z,101216.31
2022-10-19T22:33:56.481Z,101212.78
2022-10-19T22:36:23.126Z,101203.94
2022-10-19T22:38:49.883Z,101213.91
2022-10-19T22:41:16.569Z,101198.72
2022-10-19T22:43:43.313Z,101199.81
2022-10-19T22:46:09.984Z,101200.66
2022-10-19T22:48:36.922Z,101199.56
2022-10-19T22:51:03.688Z,101209.41
2022-10-19T22:53:30.415Z,101190.81
2022-10-19T22:55:57.056Z,101186.47
2022-10-19T22:58:23.715Z,101184.38
2022-10-19T23:01:14.303Z,101186.66
2022-10-19T23:03:41.474Z,101182.44
2022-10-19T23:06:10.449Z,101174.03
2022-10-19T23:08:37.405Z,101176.91
2022-10-19T23:11:04.766Z,101170.56
2022-10-19T23:13:31.428Z,101150.69
2022-10-19T23:15:58.048Z,101143.63
2022-10-19T23:18:24.883Z,101154.31
2022-10-19T23:21:00.009Z,101150.41
2022-10-19T23:23:27.306Z,101150.09
2022-10-19T23:26:13.607Z,101139.66
2022-10-19T23:28:43.406Z,101138.03
2022-10-19T23:31:24.342Z,101135.50
2022-10-19T23:33:53.096Z,101121.28
2022-10-19T23:36:22.221Z,101123.47
2022-10-19T23:38:50.950Z,101121.28
2022-10-19T23:41:18.697Z,101124.47
2022-10-19T23:43:45.478Z,101122.75
2022-10-19T23:46:12.863Z,101124.31
2022-10-19T23:48:39.999Z,101122.13
2022-10-19T23:51:09.539Z,101118.34
2022-10-19T23:53:40.879Z,101116.91
2022-10-19T23:56:18.729Z,101117.91
2022-10-19T23:58:46.288Z,101115.06
